createdAt,value
2022-11-26T00:02:26.002Z,8.85
2022-11-26T00:06:34.940Z,8.93
2022-11-26T00:10:39.499Z,8.38
2022-11-26T00:14:42.490Z,8.20
2022-11-26T00:18:45.518Z,8.80
2022-11-26T00:22:52.616Z,8.38
2022-11-26T00:26:59.943Z,9.13
2022-11-26T00:31:05.753Z,8.35
2022-11-26T00:35:09.458Z,9.55
2022-11-26T00:39:17.030Z,8.88
2022-11-26T00:43:21.765Z,8.65
2022-11-26T00:47:24.811Z,7.82
2022-11-26T00:51:29.240Z,8.32
2022-11-26T00:55:35.642Z,7.88
2022-11-26T00:59:39.965Z,6.97
2022-11-26T01:03:44.065Z,6.53
2022-11-26T01:07:47.696Z,7.35
2022-11-26T01:11:54.297Z,5.85
2022-11-26T01:16:01.077Z,6.10
2022-11-26T01:20:05.629Z,5.20
2022-11-26T01:24:08.901Z,3.63
2022-11-26T01:28:14.184Z,3.33
2022-11-26T01:32:18.546Z,3.17
2022-11-26T01:36:27.536Z,3.00
2022-11-26T01:40:39.967Z,2.15
2022-11-26T01:44:44.032Z,2.42
2022-11-26T01:48:49.836Z,2.80
2022-11-26T01:52:53.854Z,2.25
2022-11-26T01:57:00.545Z,2.10
2022-11-26T02:01:03.580Z,2.20
2022-11-26T02:05:13.618Z,2.08
2022-11-26T02:09:17.319Z,1.85
2022-11-26T02:13:20.695Z,2.50
2022-11-26T02:17:28.596Z,2.60
2022-11-26T02:21:37.212Z,3.13
2022-11-26T02:26:18.200Z,2.78
2022-11-26T02:30:22.593Z,2.67
2022-11-26T02:34:37.006Z,3.17
2022-11-26T02:38:40.836Z,3.60
2022-11-26T02:42:43.841Z,3.30
2022-11-26T02:46:50.950Z,3.90
2022-11-26T02:50:58.027Z,3.80
2022-11-26T02:55:03.185Z,3.63
2022-11-26T02:59:06.588Z,3.53
2022-11-26T03:03:22.919Z,3.33
2022-11-26T03:07:27.503Z,2.80
2022-11-26T03:11:31.001Z,3.15
2022-11-26T03:15:34.041Z,3.13
2022-11-26T03:19:38.546Z,3.13
2022-11-26T03:23:41.719Z,3.65
2022-11-26T03:27:44.869Z,3.50
2022-11-26T03:31:48.089Z,3.22
2022-11-26T03:35:52.488Z,3.67
2022-11-26T03:39:55.541Z,3.65
2022-11-26T03:43:58.507Z,3.42
2022-11-26T03:48:01.775Z,3.60
2022-11-26T03:52:06.711Z,3.70
2022-11-26T03:56:09.708Z,3.53
2022-11-26T04:00:14.615Z,3.88
2022-11-26T04:04:17.907Z,4.13
2022-11-26T04:08:22.904Z,3.60
2022-11-26T04:12:27.295Z,3.78
2022-11-26T04:16:30.407Z,3.50
2022-11-26T04:20:33.424Z,4.30
2022-11-26T04:24:38.107Z,3.80
2022-11-26T04:28:41.472Z,4.05
2022-11-26T04:32:44.472Z,3.70
2022-11-26T04:36:47.637Z,3.72
2022-11-26T04:40:52.055Z,3.67
2022-11-26T04:44:55.069Z,3.70
2022-11-26T04:48:58.079Z,3.67
2022-11-26T04:53:01.347Z,3.47
2022-11-26T04:57:05.927Z,3.42
2022-11-26T05:01:09.267Z,3.08
2022-11-26T05:05:12.718Z,3.70
2022-11-26T05:09:15.884Z,2.88
2022-11-26T05:13:20.239Z,2.60
2022-11-26T05:17:23.229Z,3.03
2022-11-26T05:21:26.211Z,3.30
2022-11-26T05:25:29.230Z,3.88
2022-11-26T05:29:33.665Z,3.10
2022-11-26T05:33:36.656Z,3.78
2022-11-26T05:37:39.703Z,3.17
2022-11-26T05:41:42.928Z,4.03
2022-11-26T05:45:47.273Z,3.28
2022-11-26T05:49:50.303Z,2.75
2022-11-26T05:53:53.160Z,2.78
2022-11-26T05:57:56.074Z,3.53
2022-11-26T06:02:00.545Z,3.58
2022-11-26T06:06:03.963Z,3.58
2022-11-26T06:10:08.430Z,4.10
2022-11-26T06:14:11.490Z,3.65
2022-11-26T06:18:16.332Z,2.95
2022-11-26T06:22:19.504Z,2.67
2022-11-26T06:26:22.421Z,2.78
2022-11-26T06:30:25.340Z,2.63
2022-11-26T06:34:30.073Z,2.80
2022-11-26T06:38:33.456Z,2.95
2022-11-26T06:42:36.534Z,3.00
2022-11-26T06:46:39.433Z,2.75
2022-11-26T06:50:43.692Z,2.63
2022-11-26T06:54:46.539Z,3.05
2022-11-26T06:58:50.696Z,3.00
2022-11-26T07:02:53.874Z,2.78
2022-11-26T07:06:58.276Z,2.80
2022-11-26T07:11:03.616Z,2.58
2022-11-26T07:15:07.395Z,2.80
2022-11-26T07:19:14.352Z,3.00
2022-11-26T07:23:18.721Z,2.90
2022-11-26T07:27:22.023Z,2.88
2022-11-26T07:31:25.375Z,2.88
2022-11-26T07:35:28.564Z,2.33
2022-11-26T07:39:33.050Z,2.55
2022-11-26T07:43:36.439Z,2.90
2022-11-26T07:47:39.360Z,3.20
2022-11-26T07:51:42.565Z,3.05
2022-11-26T07:55:46.841Z,2.90
2022-11-26T07:59:49.951Z,3.00
2022-11-26T08:03:53.194Z,3.47
2022-11-26T08:07:56.236Z,3.22
2022-11-26T08:12:00.751Z,3.17
2022-11-26T08:16:03.973Z,3.55
2022-11-26T08:20:08.300Z,2.70
2022-11-26T08:24:14.839Z,3.15
2022-11-26T08:28:19.150Z,2.40
2022-11-26T08:32:25.301Z,2.50
2022-11-26T08:36:31.659Z,2.83
2022-11-26T08:40:34.716Z,1.90
2022-11-26T08:44:39.567Z,2.72
2022-11-26T08:48:42.958Z,3.05
2022-11-26T08:52:46.090Z,2.80
2022-11-26T08:56:49.038Z,3.92
2022-11-26T09:00:53.339Z,3.65
2022-11-26T09:04:56.331Z,3.80
2022-11-26T09:09:18.014Z,3.92
2022-11-26T09:13:22.586Z,4.07
2022-11-26T09:17:26.860Z,3.80
2022-11-26T09:21:29.979Z,3.45
2022-11-26T09:25:33.068Z,3.90
2022-11-26T09:29:36.059Z,3.40
2022-11-26T09:33:40.461Z,3.85
2022-11-26T09:37:46.098Z,3.00
2022-11-26T09:41:58.041Z,2.88
2022-11-26T09:46:02.074Z,3.10
2022-11-26T09:50:17.787Z,3.30
2022-11-26T09:54:23.541Z,3.30
2022-11-26T09:58:31.319Z,3.30
2022-11-26T10:02:35.088Z,3.58
2022-11-26T10:06:51.407Z,3.53
2022-11-26T10:11:03.778Z,3.55
2022-11-26T10:15:17.625Z,3.17
2022-11-26T10:19:27.914Z,3.22
2022-11-26T10:23:39.025Z,3.20
2022-11-26T10:27:42.383Z,3.03
2022-11-26T10:31:47.742Z,3.28
2022-11-26T10:35:51.645Z,2.78
2022-11-26T10:40:02.005Z,3.00
2022-11-26T10:44:30.225Z,2.80
2022-11-26T10:48:34.661Z,2.67
2022-11-26T10:52:39.664Z,2.70
2022-11-26T10:56:47.557Z,2.50
2022-11-26T11:00:57.867Z,2.72
2022-11-26T11:05:04.105Z,3.25
2022-11-26T11:09:25.746Z,3.08
2022-11-26T11:13:42.364Z,3.10
2022-11-26T11:17:46.484Z,3.00
2022-11-26T11:21:49.678Z,2.70
2022-11-26T11:26:01.406Z,3.13
2022-11-26T11:30:07.097Z,2.60
2022-11-26T11:34:14.818Z,2.90
2022-11-26T11:38:23.809Z,2.40
2022-11-26T11:42:29.472Z,2.60
2022-11-26T11:46:55.861Z,2.50
2022-11-26T11:51:08.232Z,2.55
2022-11-26T11:55:22.889Z,2.67
2022-11-26T11:59:58.410Z,2.83
2022-11-26T12:04:20.876Z,2.67
2022-11-26T12:08:37.370Z,2.45
2022-11-26T12:12:44.530Z,2.55
2022-11-26T12:16:53.735Z,2.90
2022-11-26T12:21:02.938Z,2.53
2022-11-26T12:25:15.580Z,2.42
2022-11-26T12:29:28.457Z,2.40
2022-11-26T12:33:35.063Z,2.63
2022-11-26T12:37:42.600Z,2.40
2022-11-26T12:41:51.488Z,2.40
2022-11-26T12:45:59.547Z,2.30
2022-11-26T12:50:16.530Z,2.58
2022-11-26T12:54:25.916Z,2.45
2022-11-26T12:58:38.624Z,2.70
2022-11-26T13:02:44.519Z,2.90
2022-11-26T13:07:03.952Z,2.40
2022-11-26T13:11:21.646Z,2.28
2022-11-26T13:15:33.307Z,2.70
2022-11-26T13:19:41.958Z,2.78
2022-11-26T13:23:57.771Z,2.50
2022-11-26T13:28:15.255Z,2.58
2022-11-26T13:32:43.687Z,2.33
2022-11-26T13:37:14.198Z,2.47
2022-11-26T13:41:30.223Z,2.60
2022-11-26T13:46:05.726Z,2.30
2022-11-26T13:50:14.484Z,2.60
2022-11-26T13:54:22.989Z,2.17
2022-11-26T13:58:31.572Z,2.08
2022-11-26T14:02:44.328Z,2.30
2022-11-26T14:07:21.991Z,1.90
2022-11-26T14:11:56.871Z,2.03
2022-11-26T14:16:02.479Z,2.10
2022-11-26T14:20:10.083Z,1.95
2022-11-26T14:24:33.073Z,1.70
2022-11-26T14:28:36.096Z,2.00
2022-11-26T14:32:42.829Z,1.73
2022-11-26T14:36:56.093Z,1.75
2022-11-26T14:41:00.426Z,1.92
2022-11-26T14:45:05.620Z,2.15
2022-11-26T14:49:21.272Z,1.70
2022-11-26T14:53:29.333Z,1.88
2022-11-26T14:57:42.233Z,2.20
2022-11-26T15:01:46.913Z,1.98
2022-11-26T15:05:49.966Z,2.30
2022-11-26T15:10:03.806Z,2.72
2022-11-26T15:14:06.848Z,2.30
2022-11-26T15:18:16.248Z,2.20
2022-11-26T15:22:23.124Z,2.40
2022-11-26T15:26:33.199Z,2.22
2022-11-26T15:30:38.160Z,2.40
2022-11-26T15:34:42.204Z,2.63
2022-11-26T15:39:03.061Z,2.30
2022-11-26T15:43:07.640Z,2.75
2022-11-26T15:47:20.614Z,2.60
2022-11-26T15:51:33.779Z,2.63
2022-11-26T15:55:38.962Z,3.00
2022-11-26T15:59:48.980Z,2.90
2022-11-26T16:03:53.762Z,2.35
2022-11-26T16:07:58.198Z,3.15
2022-11-26T16:12:02.302Z,3.38
2022-11-26T16:16:14.640Z,4.28
2022-11-26T16:20:20.244Z,3.40
2022-11-26T16:24:29.508Z,3.00
2022-11-26T16:28:32.565Z,3.40
2022-11-26T16:32:36.928Z,2.90
2022-11-26T16:36:44.190Z,2.75
2022-11-26T16:40:47.216Z,3.10
2022-11-26T16:44:50.822Z,2.60
2022-11-26T16:48:55.386Z,3.20
2022-11-26T16:52:58.391Z,2.70
2022-11-26T16:57:02.075Z,2.30
2022-11-26T17:01:05.081Z,2.70
2022-11-26T17:05:09.916Z,2.75
2022-11-26T17:09:18.725Z,2.60
2022-11-26T17:13:21.886Z,2.67
2022-11-26T17:17:29.315Z,2.50
2022-11-26T17:21:33.887Z,2.67
2022-11-26T17:25:36.872Z,2.53
2022-11-26T17:29:42.795Z,2.67
2022-11-26T17:33:46.165Z,2.33
2022-11-26T17:37:50.788Z,2.55
2022-11-26T17:41:54.185Z,2.40
2022-11-26T17:45:59.321Z,2.78
2022-11-26T17:50:02.375Z,2.50
2022-11-26T17:54:07.060Z,2.80
2022-11-26T17:58:12.386Z,3.08
2022-11-26T18:02:15.686Z,2.90
2022-11-26T18:06:21.378Z,3.00
2022-11-26T18:10:25.907Z,2.80
2022-11-26T18:14:29.219Z,2.88
2022-11-26T18:18:32.219Z,2.70
2022-11-26T18:22:35.179Z,2.90
2022-11-26T18:26:41.175Z,2.60
2022-11-26T18:30:44.676Z,3.15
2022-11-26T18:34:50.070Z,2.80
2022-11-26T18:38:53.330Z,2.88
2022-11-26T18:42:57.894Z,2.97
2022-11-26T18:47:04.344Z,2.85
2022-11-26T18:51:10.432Z,2.95
2022-11-26T18:55:14.908Z,3.40
2022-11-26T18:59:19.267Z,3.00
2022-11-26T19:03:22.305Z,2.92
2022-11-26T19:07:25.354Z,3.25
2022-11-26T19:11:29.263Z,3.10
2022-11-26T19:15:34.547Z,2.65
2022-11-26T19:19:39.416Z,3.30
2022-11-26T19:23:42.912Z,2.80
2022-11-26T19:27:45.880Z,3.35
2022-11-26T19:31:50.469Z,2.88
2022-11-26T19:35:53.470Z,2.67
2022-11-26T19:39:56.783Z,2.88
2022-11-26T19:44:01.410Z,2.70
2022-11-26T19:48:05.958Z,2.53
2022-11-26T19:52:08.945Z,2.92
2022-11-26T19:56:16.348Z,2.83
2022-11-26T20:00:19.734Z,3.00
2022-11-26T20:04:27.460Z,3.00
2022-11-26T20:08:30.678Z,3.10
2022-11-26T20:12:33.731Z,3.13
2022-11-26T20:16:37.279Z,2.83
2022-11-26T20:20:41.899Z,2.60
2022-11-26T20:24:44.843Z,3.28
2022-11-26T20:28:47.830Z,2.70
2022-11-26T20:32:50.852Z,2.60
2022-11-26T20:36:55.295Z,2.40
2022-11-26T20:40:58.519Z,2.28
2022-11-26T20:45:01.521Z,2.80
2022-11-26T20:49:05.859Z,2.25
2022-11-26T20:53:10.219Z,2.30
2022-11-26T20:57:13.217Z,2.67
2022-11-26T21:01:17.867Z,2.60
2022-11-26T21:05:21.464Z,2.83
2022-11-26T21:09:25.952Z,2.65
2022-11-26T21:13:28.964Z,2.83
2022-11-26T21:17:32.358Z,2.60
2022-11-26T21:21:35.521Z,2.55
2022-11-26T21:25:41.675Z,2.67
2022-11-26T21:29:46.186Z,2.72
2022-11-26T21:33:55.183Z,2.50
2022-11-26T21:37:59.262Z,2.85
2022-11-26T21:42:03.603Z,2.72
2022-11-26T21:46:08.563Z,2.58
2022-11-26T21:50:13.047Z,2.92
2022-11-26T21:54:16.447Z,2.58
2022-11-26T21:58:21.341Z,2.80
2022-11-26T22:02:24.587Z,2.83
2022-11-26T22:06:28.027Z,3.05
2022-11-26T22:10:35.945Z,3.10
2022-11-26T22:14:40.730Z,3.08
2022-11-26T22:18:45.387Z,2.78
2022-11-26T22:22:48.540Z,3.17
2022-11-26T22:26:52.513Z,3.10
2022-11-26T22:30:57.158Z,3.10
2022-11-26T22:35:00.119Z,2.90
2022-11-26T22:39:04.760Z,2.78
2022-11-26T22:43:07.722Z,2.67
2022-11-26T22:47:12.276Z,2.80
2022-11-26T22:51:15.614Z,2.67
2022-11-26T22:55:18.775Z,3.00
2022-11-26T22:59:21.751Z,2.70
2022-11-26T23:03:27.857Z,2.92
2022-11-26T23:07:31.297Z,2.78
2022-11-26T23:11:36.458Z,2.92
2022-11-26T23:15:44.500Z,2.97
2022-11-26T23:19:49.385Z,3.30
2022-11-26T23:23:53.178Z,3.50
2022-11-26T23:27:56.333Z,3.25
2022-11-26T23:31:59.380Z,3.10
2022-11-26T23:36:04.428Z,3.40
2022-11-26T23:40:09.214Z,3.58
2022-11-26T23:44:12.205Z,3.67
2022-11-26T23:48:15.204Z,3.30
2022-11-26T23:52:19.580Z,3.33
2022-11-26T23:56:25.042Z,3.10
